sensor_id;sensor_type;location;lat;lon;timestamp;P1;durP1;ratioP1;P2;durP2;ratioP2
7961;SDS011;4026;43.652;24.906;2023-07-31T15:45:10;8.85;;;5.72;;
7961;SDS011;4026;43.652;24.906;2023-07-31T15:47:37;8.50;;;5.93;;
7961;SDS011;4026;43.652;24.906;2023-07-31T15:50:04;9.13;;;6.07;;
7961;SDS011;4026;43.652;24.906;2023-07-31T15:52:32;9.00;;;5.68;;
7961;SDS011;4026;43.652;24.906;2023-07-31T15:54:58;11.40;;;6.45;;
7961;SDS011;4026;43.652;24.906;2023-07-31T15:57:25;10.00;;;6.53;;
7961;SDS011;4026;43.652;24.906;2023-07-31T15:59:52;9.93;;;6.75;;
7961;SDS011;4026;43.652;24.906;2023-07-31T16:02:21;10.77;;;6.93;;
7961;SDS011;4026;43.652;24.906;2023-07-31T16:04:47;15.93;;;7.18;;
7961;SDS011;4026;43.652;24.906;2023-07-31T16:07:14;11.55;;;7.10;;
7961;SDS011;4026;43.652;24.906;2023-07-31T16:09:41;11.52;;;7.45;;
7961;SDS011;4026;43.652;24.906;2023-07-31T16:12:08;11.10;;;7.88;;
7961;SDS011;4026;43.652;24.906;2023-07-31T16:14:36;12.02;;;7.95;;
7961;SDS011;4026;43.652;24.906;2023-07-31T16:17:04;13.63;;;8.88;;
7961;SDS011;4026;43.652;24.906;2023-07-31T16:19:32;13.85;;;8.25;;
7961;SDS011;4026;43.652;24.906;2023-07-31T16:21:59;12.82;;;8.45;;
7961;SDS011;4026;43.652;24.906;2023-07-31T16:24:26;12.82;;;7.95;;
7961;SDS011;4026;43.652;24.906;2023-07-31T16:26:53;13.43;;;8.63;;
7961;SDS011;4026;43.652;24.906;2023-07-31T16:29:20;11.27;;;7.75;;
7961;SDS011;4026;43.652;24.906;2023-07-31T16:31:47;14.23;;;8.63;;
7961;SDS011;4026;43.652;24.906;2023-07-31T16:34:13;12.85;;;8.52;;
7961;SDS011;4026;43.652;24.906;2023-07-31T16:36:42;11.10;;;7.93;;
7961;SDS011;4026;43.652;24.906;2023-07-31T16:39:08;15.98;;;9.63;;
7961;SDS011;4026;43.652;24.906;2023-07-31T16:41:36;14.77;;;9.27;;
7961;SDS011;4026;43.652;24.906;2023-07-31T16:44:02;14.07;;;9.15;;
7961;SDS011;4026;43.652;24.906;2023-07-31T16:46:30;14.48;;;8.55;;
7961;SDS011;4026;43.652;24.906;2023-07-31T16:48:56;13.30;;;8.57;;
7961;SDS011;4026;43.652;24.906;2023-07-31T16:51:23;12.30;;;8.70;;
7961;SDS011;4026;43.652;24.906;2023-07-31T16:53:52;12.15;;;7.82;;
7961;SDS011;4026;43.652;24.906;2023-07-31T16:56:19;12.80;;;8.60;;
7961;SDS011;4026;43.652;24.906;2023-07-31T17:01:37;13.43;;;9.05;;
7961;SDS011;4026;43.652;24.906;2023-07-31T17:04:04;14.88;;;9.82;;
7961;SDS011;4026;43.652;24.906;2023-07-31T17:06:31;14.70;;;9.45;;
7961;SDS011;4026;43.652;24.906;2023-07-31T17:08:59;14.45;;;9.38;;
7961;SDS011;4026;43.652;24.906;2023-07-31T17:11:27;14.57;;;9.07;;
7961;SDS011;4026;43.652;24.906;2023-07-31T17:13:53;12.55;;;9.07;;
7961;SDS011;4026;43.652;24.906;2023-07-31T17:16:20;12.68;;;8.80;;
7961;SDS011;4026;43.652;24.906;2023-07-31T17:18:48;15.05;;;10.38;;
7961;SDS011;4026;43.652;24.906;2023-07-31T17:21:15;19.48;;;11.77;;
7961;SDS011;4026;43.652;24.906;2023-07-31T17:23:41;20.02;;;12.30;;
7961;SDS011;4026;43.652;24.906;2023-07-31T17:26:10;17.48;;;10.98;;
7961;SDS011;4026;43.652;24.906;2023-07-31T17:28:38;14.52;;;9.45;;
7961;SDS011;4026;43.652;24.906;2023-07-31T17:31:05;14.20;;;9.35;;
7961;SDS011;4026;43.652;24.906;2023-07-31T17:33:32;16.30;;;9.88;;
7961;SDS011;4026;43.652;24.906;2023-07-31T17:36:00;14.70;;;9.85;;
7961;SDS011;4026;43.652;24.906;2023-07-31T17:38:26;12.98;;;8.35;;
7961;SDS011;4026;43.652;24.906;2023-07-31T17:40:53;11.10;;;7.85;;
7961;SDS011;4026;43.652;24.906;2023-07-31T17:43:21;12.07;;;8.27;;
7961;SDS011;4026;43.652;24.906;2023-07-31T17:45:49;14.15;;;8.85;;
7961;SDS011;4026;43.652;24.906;2023-07-31T17:48:16;13.15;;;8.48;;
7961;SDS011;4026;43.652;24.906;2023-07-31T17:50:43;12.77;;;8.32;;
7961;SDS011;4026;43.652;24.906;2023-07-31T17:53:15;12.95;;;8.15;;
7961;SDS011;4026;43.652;24.906;2023-07-31T17:55:42;15.98;;;8.48;;
7961;SDS011;4026;43.652;24.906;2023-07-31T17:58:09;13.57;;;8.35;;
7961;SDS011;4026;43.652;24.906;2023-07-31T18:00:37;16.60;;;9.15;;
7961;SDS011;4026;43.652;24.906;2023-07-31T18:03:04;14.57;;;9.07;;
7961;SDS011;4026;43.652;24.906;2023-07-31T18:05:31;14.55;;;9.23;;
7961;SDS011;4026;43.652;24.906;2023-07-31T18:07:58;14.85;;;8.98;;
7961;SDS011;4026;43.652;24.906;2023-07-31T18:10:25;16.45;;;10.23;;
7961;SDS011;4026;43.652;24.906;2023-07-31T18:12:52;15.30;;;9.20;;
7961;SDS011;4026;43.652;24.906;2023-07-31T18:15:21;13.27;;;9.07;;
7961;SDS011;4026;43.652;24.906;2023-07-31T18:17:50;14.32;;;8.85;;
7961;SDS011;4026;43.652;24.906;2023-07-31T18:20:17;16.23;;;9.43;;
7961;SDS011;4026;43.652;24.906;2023-07-31T18:22:44;14.25;;;9.30;;
7961;SDS011;4026;43.652;24.906;2023-07-31T18:25:11;15.45;;;8.93;;
7961;SDS011;4026;43.652;24.906;2023-07-31T18:27:38;13.75;;;9.05;;
7961;SDS011;4026;43.652;24.906;2023-07-31T18:30:06;15.65;;;9.70;;
7961;SDS011;4026;43.652;24.906;2023-07-31T18:32:34;14.52;;;8.98;;
7961;SDS011;4026;43.652;24.906;2023-07-31T18:35:02;15.57;;;9.55;;
7961;SDS011;4026;43.652;24.906;2023-07-31T18:37:29;14.85;;;9.32;;
7961;SDS011;4026;43.652;24.906;2023-07-31T18:39:56;13.93;;;9.38;;
7961;SDS011;4026;43.652;24.906;2023-07-31T18:42:24;12.65;;;8.32;;
7961;SDS011;4026;43.652;24.906;2023-07-31T18:44:51;13.05;;;8.75;;
7961;SDS011;4026;43.652;24.906;2023-07-31T18:47:18;13.63;;;9.05;;
7961;SDS011;4026;43.652;24.906;2023-07-31T18:49:45;13.25;;;9.07;;
7961;SDS011;4026;43.652;24.906;2023-07-31T18:52:13;11.70;;;8.07;;
7961;SDS011;4026;43.652;24.906;2023-07-31T18:54:40;11.85;;;8.07;;
7961;SDS011;4026;43.652;24.906;2023-07-31T18:57:07;13.82;;;8.15;;
7961;SDS011;4026;43.652;24.906;2023-07-31T18:59:33;13.45;;;8.68;;
7961;SDS011;4026;43.652;24.906;2023-07-31T19:02:01;11.80;;;7.78;;
7961;SDS011;4026;43.652;24.906;2023-07-31T19:04:28;13.88;;;8.68;;
7961;SDS011;4026;43.652;24.906;2023-07-31T19:06:55;11.70;;;7.90;;
7961;SDS011;4026;43.652;24.906;2023-07-31T19:09:28;11.05;;;7.88;;
7961;SDS011;4026;43.652;24.906;2023-07-31T19:11:55;13.82;;;8.48;;
7961;SDS011;4026;43.652;24.906;2023-07-31T19:14:22;11.68;;;7.65;;
7961;SDS011;4026;43.652;24.906;2023-07-31T19:16:49;13.43;;;8.73;;
7961;SDS011;4026;43.652;24.906;2023-07-31T19:19:16;12.38;;;8.10;;
7961;SDS011;4026;43.652;24.906;2023-07-31T19:21:43;13.30;;;8.07;;
7961;SDS011;4026;43.652;24.906;2023-07-31T19:24:10;12.60;;;7.85;;
7961;SDS011;4026;43.652;24.906;2023-07-31T19:26:38;11.48;;;7.45;;
7961;SDS011;4026;43.652;24.906;2023-07-31T19:29:06;12.70;;;7.75;;
7961;SDS011;4026;43.652;24.906;2023-07-31T19:31:35;14.27;;;8.37;;
7961;SDS011;4026;43.652;24.906;2023-07-31T19:34:02;11.38;;;7.80;;
7961;SDS011;4026;43.652;24.906;2023-07-31T19:36:29;13.35;;;7.57;;
7961;SDS011;4026;43.652;24.906;2023-07-31T19:38:56;12.57;;;7.80;;
7961;SDS011;4026;43.652;24.906;2023-07-31T19:41:22;13.20;;;8.38;;
7961;SDS011;4026;43.652;24.906;2023-07-31T19:43:51;12.10;;;8.15;;
7961;SDS011;4026;43.652;24.906;2023-07-31T19:46:17;12.68;;;8.07;;
7961;SDS011;4026;43.652;24.906;2023-07-31T19:48:44;14.87;;;8.07;;
7961;SDS011;4026;43.652;24.906;2023-07-31T19:51:11;13.63;;;8.43;;
7961;SDS011;4026;43.652;24.906;2023-07-31T19:53:38;14.10;;;8.30;;
7961;SDS011;4026;43.652;24.906;2023-07-31T19:56:05;13.85;;;8.52;;
7961;SDS011;4026;43.652;24.906;2023-07-31T19:58:32;14.48;;;8.85;;
7961;SDS011;4026;43.652;24.906;2023-07-31T20:01:00;14.95;;;9.27;;
7961;SDS011;4026;43.652;24.906;2023-07-31T20:03:27;14.00;;;9.05;;
7961;SDS011;4026;43.652;24.906;2023-07-31T20:05:54;14.68;;;9.38;;
7961;SDS011;4026;43.652;24.906;2023-07-31T20:08:21;12.83;;;8.30;;
7961;SDS011;4026;43.652;24.906;2023-07-31T20:10:48;15.97;;;9.17;;
7961;SDS011;4026;43.652;24.906;2023-07-31T20:13:16;14.53;;;9.47;;
7961;SDS011;4026;43.652;24.906;2023-07-31T20:15:43;14.97;;;9.40;;
7961;SDS011;4026;43.652;24.906;2023-07-31T20:18:12;16.13;;;9.57;;
7961;SDS011;4026;43.652;24.906;2023-07-31T20:20:39;15.10;;;9.18;;
7961;SDS011;4026;43.652;24.906;2023-07-31T20:23:06;15.77;;;9.10;;
7961;SDS011;4026;43.652;24.906;2023-07-31T20:25:32;17.23;;;9.40;;
7961;SDS011;4026;43.652;24.906;2023-07-31T20:28:00;17.30;;;9.43;;
7961;SDS011;4026;43.652;24.906;2023-07-31T20:30:27;15.00;;;8.43;;
7961;SDS011;4026;43.652;24.906;2023-07-31T20:32:53;16.57;;;9.87;;
7961;SDS011;4026;43.652;24.906;2023-07-31T20:35:23;14.90;;;8.83;;
7961;SDS011;4026;43.652;24.906;2023-07-31T20:37:50;14.47;;;8.63;;
7961;SDS011;4026;43.652;24.906;2023-07-31T20:40:16;12.65;;;8.00;;
7961;SDS011;4026;43.652;24.906;2023-07-31T20:42:54;14.10;;;8.83;;
7961;SDS011;4026;43.652;24.906;2023-07-31T20:45:21;13.43;;;8.73;;
7961;SDS011;4026;43.652;24.906;2023-07-31T20:47:49;13.27;;;8.37;;
7961;SDS011;4026;43.652;24.906;2023-07-31T20:50:16;15.90;;;8.50;;
7961;SDS011;4026;43.652;24.906;2023-07-31T20:52:44;16.50;;;9.20;;
7961;SDS011;4026;43.652;24.906;2023-07-31T20:55:11;14.47;;;8.37;;
7961;SDS011;4026;43.652;24.906;2023-07-31T20:57:38;14.20;;;9.37;;
7961;SDS011;4026;43.652;24.906;2023-07-31T21:00:05;16.67;;;8.27;;
7961;SDS011;4026;43.652;24.906;2023-07-31T21:02:32;13.03;;;8.80;;
7961;SDS011;4026;43.652;24.906;2023-07-31T21:04:59;12.00;;;8.00;;
7961;SDS011;4026;43.652;24.906;2023-07-31T21:07:26;13.63;;;8.57;;
7961;SDS011;4026;43.652;24.906;2023-07-31T21:09:54;14.30;;;8.83;;
7961;SDS011;4026;43.652;24.906;2023-07-31T21:12:21;13.60;;;8.53;;
7961;SDS011;4026;43.652;24.906;2023-07-31T21:14:48;12.63;;;8.20;;
7961;SDS011;4026;43.652;24.906;2023-07-31T21:17:15;14.20;;;8.50;;
7961;SDS011;4026;43.652;24.906;2023-07-31T21:19:43;12.90;;;8.17;;
7961;SDS011;4026;43.652;24.906;2023-07-31T21:22:10;15.00;;;8.40;;
7961;SDS011;4026;43.652;24.906;2023-07-31T21:24:38;15.00;;;8.80;;
7961;SDS011;4026;43.652;24.906;2023-07-31T21:27:07;14.17;;;7.87;;
7961;SDS011;4026;43.652;24.906;2023-07-31T21:29:34;12.93;;;8.23;;
7961;SDS011;4026;43.652;24.906;2023-07-31T21:32:00;14.40;;;8.47;;
7961;SDS011;4026;43.652;24.906;2023-07-31T21:34:27;12.43;;;7.50;;
7961;SDS011;4026;43.652;24.906;2023-07-31T21:36:54;13.83;;;8.37;;
7961;SDS011;4026;43.652;24.906;2023-07-31T21:39:21;14.37;;;8.67;;
7961;SDS011;4026;43.652;24.906;2023-07-31T21:41:48;13.50;;;8.23;;
7961;SDS011;4026;43.652;24.906;2023-07-31T21:44:16;14.20;;;8.30;;
7961;SDS011;4026;43.652;24.906;2023-07-31T21:46:43;13.60;;;8.40;;
7961;SDS011;4026;43.652;24.906;2023-07-31T21:49:10;12.07;;;7.87;;
7961;SDS011;4026;43.652;24.906;2023-07-31T21:51:37;13.90;;;7.80;;
7961;SDS011;4026;43.652;24.906;2023-07-31T21:54:04;11.40;;;7.17;;
7961;SDS011;4026;43.652;24.906;2023-07-31T21:56:30;12.23;;;7.70;;
7961;SDS011;4026;43.652;24.906;2023-07-31T21:58:57;12.37;;;7.60;;
7961;SDS011;4026;43.652;24.906;2023-07-31T22:01:26;12.43;;;7.50;;
7961;SDS011;4026;43.652;24.906;2023-07-31T22:03:52;12.00;;;7.30;;
7961;SDS011;4026;43.652;24.906;2023-07-31T22:06:19;12.23;;;7.23;;
7961;SDS011;4026;43.652;24.906;2023-07-31T22:08:46;12.83;;;7.40;;
7961;SDS011;4026;43.652;24.906;2023-07-31T22:11:13;12.23;;;7.73;;
7961;SDS011;4026;43.652;24.906;2023-07-31T22:13:40;13.30;;;7.67;;
7961;SDS011;4026;43.652;24.906;2023-07-31T22:16:06;11.83;;;8.10;;
7961;SDS011;4026;43.652;24.906;2023-07-31T22:18:35;14.47;;;9.00;;
7961;SDS011;4026;43.652;24.906;2023-07-31T22:21:01;13.47;;;8.47;;
7961;SDS011;4026;43.652;24.906;2023-07-31T22:23:28;13.87;;;8.30;;
7961;SDS011;4026;43.652;24.906;2023-07-31T22:25:55;14.03;;;8.13;;
7961;SDS011;4026;43.652;24.906;2023-07-31T22:28:22;16.20;;;9.20;;
7961;SDS011;4026;43.652;24.906;2023-07-31T22:30:49;13.43;;;8.17;;
7961;SDS011;4026;43.652;24.906;2023-07-31T22:33:16;12.33;;;8.23;;
7961;SDS011;4026;43.652;24.906;2023-07-31T22:35:44;11.63;;;7.93;;
7961;SDS011;4026;43.652;24.906;2023-07-31T22:38:11;13.17;;;8.37;;
7961;SDS011;4026;43.652;24.906;2023-07-31T22:40:38;13.87;;;8.27;;
7961;SDS011;4026;43.652;24.906;2023-07-31T22:43:04;13.27;;;7.87;;
7961;SDS011;4026;43.652;24.906;2023-07-31T22:45:31;15.57;;;8.83;;
7961;SDS011;4026;43.652;24.906;2023-07-31T22:47:58;13.17;;;8.40;;
7961;SDS011;4026;43.652;24.906;2023-07-31T22:50:25;13.20;;;7.60;;
7961;SDS011;4026;43.652;24.906;2023-07-31T22:52:53;12.90;;;8.70;;
7961;SDS011;4026;43.652;24.906;2023-07-31T22:55:20;15.43;;;8.77;;
7961;SDS011;4026;43.652;24.906;2023-07-31T22:57:47;12.77;;;8.00;;
7961;SDS011;4026;43.652;24.906;2023-07-31T23:00:14;13.70;;;8.40;;
7961;SDS011;4026;43.652;24.906;2023-07-31T23:02:41;14.53;;;8.63;;
7961;SDS011;4026;43.652;24.906;2023-07-31T23:05:09;14.13;;;9.00;;
7961;SDS011;4026;43.652;24.906;2023-07-31T23:07:36;13.47;;;8.20;;
7961;SDS011;4026;43.652;24.906;2023-07-31T23:10:05;16.00;;;8.83;;
7961;SDS011;4026;43.652;24.906;2023-07-31T23:12:32;14.20;;;9.13;;
7961;SDS011;4026;43.652;24.906;2023-07-31T23:14:59;11.83;;;8.40;;
7961;SDS011;4026;43.652;24.906;2023-07-31T23:17:26;12.03;;;8.23;;
7961;SDS011;4026;43.652;24.906;2023-07-31T23:19:53;14.33;;;8.80;;
7961;SDS011;4026;43.652;24.906;2023-07-31T23:22:20;13.53;;;8.17;;
7961;SDS011;4026;43.652;24.906;2023-07-31T23:24:46;16.00;;;8.70;;
7961;SDS011;4026;43.652;24.906;2023-07-31T23:27:15;14.47;;;8.27;;
7961;SDS011;4026;43.652;24.906;2023-07-31T23:29:41;11.47;;;7.67;;
7961;SDS011;4026;43.652;24.906;2023-07-31T23:32:08;12.13;;;7.37;;
7961;SDS011;4026;43.652;24.906;2023-07-31T23:34:36;12.80;;;8.03;;
7961;SDS011;4026;43.652;24.906;2023-07-31T23:37:02;12.97;;;7.87;;
7961;SDS011;4026;43.652;24.906;2023-07-31T23:39:29;13.90;;;7.70;;
7961;SDS011;4026;43.652;24.906;2023-07-31T23:41:56;13.40;;;7.70;;
7961;SDS011;4026;43.652;24.906;2023-07-31T23:44:24;12.07;;;7.43;;
7961;SDS011;4026;43.652;24.906;2023-07-31T23:46:52;13.00;;;7.73;;
7961;SDS011;4026;43.652;24.906;2023-07-31T23:49:19;12.70;;;7.80;;
7961;SDS011;4026;43.652;24.906;2023-07-31T23:51:46;14.27;;;8.10;;
7961;SDS011;4026;43.652;24.906;2023-07-31T23:54:13;12.60;;;7.80;;
7961;SDS011;4026;43.652;24.906;2023-07-31T23:56:40;12.53;;;7.80;;
7961;SDS011;4026;43.652;24.906;2023-07-31T23:59:07;15.33;;;8.40;;
